UWLW 230600Z 36007G12MPS CAVOK 14/01 Q1025 R02/CLRD60 NOSIG RMK QFE762/1016
QNH:(hPa/inHg/mmHg)1025 / 30.27 / 769
QFE:(hPa/inHg/mmHg)1016 / 29.99 / 762
Temperature14
Dew Point1
Visibility> 10000
WeatherCAVOK
Cloud Cover
Transition Height900 m./3300 ft.
Transition LevelFL40
SQUAWK